Terminal Aerodrome Forecast
Issued by NWS

Current Version | Previous Version | Text Only | Print | Product List | Glossary On
Versions: 1 2 3 4 5 6 7 8 9 10 11 12 13 14 15 16 17 18
000
FTUS46 KLOX 051100
TAFSBA
TAF
KSBA 051123Z 0512/0612 11003KT P6SM OVC020
     FM051900 23008KT P6SM BKN025
     FM052200 25010KT P6SM SCT030
     FM060200 VRB03KT P6SM FEW030
     FM060700 07003KT P6SM SCT020
     FM061000 11003KT P6SM BKN020=

USA.gov is the U.S. government's official web portal to all federal, state and local government web resources and services.